Time;durP1;ratioP1;P1;durP2;ratioP2;P2;SDS_P1;SDS_P2;PMS_P1;PMS_P2;Temp;Humidity;BMP_temperature;BMP_pressure;BME280_temperature;BME280_humidity;BME280_pressure;Samples;Min_cycle;Max_cycle;Signal;HPM_P1;HPM_P2
2023/08/16 00:00:59;;;;;;;0.95;0.40;;;26.10;49.60;;;;;;5049739;28;20390;-67
2023/08/16 00:03:25;;;;;;;0.93;0.50;;;26.10;49.60;;;;;;5067840;28;20078;-68
2023/08/16 00:05:52;;;;;;;1.00;0.60;;;26.10;49.60;;;;;;5065535;28;20065;-67
2023/08/16 00:08:18;;;;;;;1.40;0.60;;;26.10;49.60;;;;;;5045752;28;21197;-66
2023/08/16 00:10:44;;;;;;;1.15;0.70;;;26.10;49.60;;;;;;5050916;28;20032;-68
2023/08/16 00:13:10;;;;;;;1.70;0.50;;;26.10;49.50;;;;;;5069013;28;20051;-66
2023/08/16 00:15:36;;;;;;;1.13;0.50;;;26.10;49.50;;;;;;5058216;28;20033;-66
2023/08/16 00:18:02;;;;;;;1.00;0.50;;;26.10;49.50;;;;;;5063868;28;20113;-67
2023/08/16 00:20:28;;;;;;;1.38;0.55;;;26.10;49.50;;;;;;5066059;28;20409;-67
2023/08/16 00:22:54;;;;;;;1.02;0.50;;;26.10;49.50;;;;;;5050035;28;20028;-66
2023/08/16 00:25:20;;;;;;;2.15;0.90;;;26.00;49.40;;;;;;5050958;28;20031;-68
2023/08/16 00:27:46;;;;;;;1.80;0.60;;;26.00;49.40;;;;;;5070248;28;20024;-67
2023/08/16 00:30:12;;;;;;;0.43;0.38;;;26.00;49.40;;;;;;5061184;28;20032;-66
2023/08/16 00:32:38;;;;;;;0.93;0.47;;;26.10;49.50;;;;;;5046666;28;20096;-66
2023/08/16 00:35:05;;;;;;;0.52;0.50;;;26.00;49.40;;;;;;5045124;28;20025;-66
2023/08/16 00:37:31;;;;;;;0.70;0.40;;;26.00;49.50;;;;;;5067157;28;20020;-68
2023/08/16 00:39:57;;;;;;;0.93;0.50;;;26.00;49.40;;;;;;5069191;28;20044;-66
2023/08/16 00:42:23;;;;;;;1.23;0.52;;;26.00;49.50;;;;;;5068404;28;20095;-68
2023/08/16 00:44:49;;;;;;;1.85;0.57;;;26.00;49.40;;;;;;5073267;28;20032;-66
2023/08/16 00:47:16;;;;;;;0.68;0.40;;;26.00;49.40;;;;;;5055132;28;20064;-67
2023/08/16 00:49:42;;;;;;;1.58;0.63;;;26.00;49.40;;;;;;5042281;28;20053;-67
2023/08/16 00:52:09;;;;;;;0.77;0.50;;;26.00;49.50;;;;;;5047320;28;20125;-67
2023/08/16 00:54:35;;;;;;;0.52;0.43;;;26.00;49.50;;;;;;5064802;28;20050;-67
2023/08/16 00:57:01;;;;;;;1.23;0.45;;;26.00;49.50;;;;;;5064681;28;20028;-66
2023/08/16 00:59:28;;;;;;;1.77;0.73;;;26.00;49.50;;;;;;5067334;28;20042;-65
2023/08/16 01:01:54;;;;;;;0.75;0.40;;;26.00;49.50;;;;;;5069571;28;20020;-65
2023/08/16 01:04:20;;;;;;;0.75;0.50;;;26.00;49.60;;;;;;5038829;28;20458;-68
2023/08/16 01:06:48;;;;;;;1.30;0.60;;;25.90;49.60;;;;;;5046888;28;20335;-66
2023/08/16 01:09:14;;;;;;;1.13;0.50;;;26.00;49.60;;;;;;5046397;28;20029;-66
2023/08/16 01:12:05;;;;;;;0.60;0.43;;;25.90;49.60;;;;;;5076587;28;20078;-66
2023/08/16 01:14:53;;;;;;;1.17;0.50;;;25.90;49.50;;;;;;5049423;28;20028;-65
2023/08/16 01:17:23;;;;;;;1.30;0.50;;;25.90;49.60;;;;;;5044386;28;20466;-66
2023/08/16 01:19:51;;;;;;;0.95;0.60;;;25.90;49.60;;;;;;5073113;28;20099;-65
2023/08/16 01:22:38;;;;;;;1.02;0.60;;;25.90;49.60;;;;;;5052880;28;20028;-67
2023/08/16 01:25:27;;;;;;;1.60;0.70;;;25.90;49.60;;;;;;5046300;28;20036;-67
2023/08/16 01:27:54;;;;;;;1.02;0.57;;;25.90;49.60;;;;;;5075905;28;20395;-67
2023/08/16 01:30:21;;;;;;;1.92;0.57;;;25.90;49.60;;;;;;5053163;28;20483;-66
2023/08/16 01:32:47;;;;;;;1.10;0.50;;;25.90;49.60;;;;;;5068493;28;20412;-66
2023/08/16 01:35:17;;;;;;;1.65;0.60;;;25.90;49.60;;;;;;5055826;28;20033;-67
2023/08/16 01:37:44;;;;;;;0.90;0.50;;;25.90;49.60;;;;;;5048518;28;20035;-66
2023/08/16 01:40:11;;;;;;;0.60;0.40;;;25.80;49.50;;;;;;5067478;28;20129;-67
2023/08/16 01:42:43;;;;;;;1.25;0.50;;;25.80;49.60;;;;;;5069238;28;20471;-67
2023/08/16 01:45:09;;;;;;;1.20;0.75;;;25.80;49.50;;;;;;5035308;28;20329;-68
2023/08/16 01:47:37;;;;;;;1.02;0.45;;;25.80;49.60;;;;;;5048840;28;20178;-65
2023/08/16 01:50:05;;;;;;;0.90;0.50;;;25.80;49.60;;;;;;5073837;28;20146;-67
2023/08/16 01:52:32;;;;;;;1.52;0.70;;;25.80;49.50;;;;;;5066225;28;20064;-68
2023/08/16 01:54:58;;;;;;;0.82;0.45;;;25.80;49.50;;;;;;5062717;28;20082;-67
2023/08/16 01:57:26;;;;;;;0.85;0.55;;;25.80;49.50;;;;;;5060007;28;20182;-67
2023/08/16 01:59:52;;;;;;;1.10;0.47;;;25.80;49.50;;;;;;5049775;28;20222;-66
2023/08/16 02:02:17;;;;;;;0.60;0.32;;;25.80;49.50;;;;;;5067742;28;20021;-66
2023/08/16 02:04:43;;;;;;;0.80;0.47;;;25.80;49.50;;;;;;5044161;28;20028;-67
2023/08/16 02:07:09;;;;;;;0.85;0.40;;;25.80;49.50;;;;;;5065624;28;20218;-66
2023/08/16 02:09:35;;;;;;;0.80;0.50;;;25.80;49.50;;;;;;5062596;28;20104;-66
2023/08/16 02:12:01;;;;;;;0.90;0.50;;;25.80;49.50;;;;;;5072139;28;20020;-69
2023/08/16 02:14:27;;;;;;;0.75;0.50;;;25.80;49.50;;;;;;5032687;28;20028;-66
2023/08/16 02:16:53;;;;;;;0.60;0.40;;;25.80;49.50;;;;;;5069978;28;20036;-67
2023/08/16 02:19:19;;;;;;;0.85;0.60;;;25.80;49.50;;;;;;5048996;28;20051;-66
2023/08/16 02:21:45;;;;;;;1.15;0.52;;;25.80;49.50;;;;;;5044006;28;20033;-68
2023/08/16 02:24:11;;;;;;;1.05;0.40;;;25.80;49.50;;;;;;5064133;28;21990;-67
2023/08/16 02:26:37;;;;;;;0.90;0.50;;;25.80;49.50;;;;;;5060046;28;20020;-67
2023/08/16 02:29:03;;;;;;;0.52;0.30;;;25.80;49.60;;;;;;5068139;28;20028;-66
2023/08/16 02:31:29;;;;;;;0.93;0.40;;;25.80;50.20;;;;;;5059985;28;20017;-67
2023/08/16 02:33:55;;;;;;;1.63;0.50;;;25.70;49.50;;;;;;5042586;28;20032;-67
2023/08/16 02:36:21;;;;;;;0.65;0.50;;;25.80;49.50;;;;;;5048175;28;20333;-66
2023/08/16 02:38:47;;;;;;;1.08;0.45;;;25.70;49.50;;;;;;5064609;28;20063;-67
2023/08/16 02:41:13;;;;;;;1.15;0.55;;;25.70;49.50;;;;;;5063094;28;20120;-67
2023/08/16 02:43:39;;;;;;;0.73;0.50;;;25.70;49.60;;;;;;5044802;28;20620;-66
2023/08/16 02:46:05;;;;;;;1.45;0.68;;;25.70;49.60;;;;;;5069062;28;20025;-68
2023/08/16 02:48:31;;;;;;;1.65;0.68;;;25.70;49.60;;;;;;5041593;28;20047;-66
2023/08/16 02:50:57;;;;;;;1.33;0.50;;;25.70;49.60;;;;;;5058070;28;20021;-66
2023/08/16 02:53:23;;;;;;;1.48;0.60;;;25.70;49.60;;;;;;5043142;28;20459;-68
2023/08/16 02:55:49;;;;;;;1.73;0.60;;;25.70;49.70;;;;;;5061460;28;20070;-67
2023/08/16 02:58:15;;;;;;;2.08;0.60;;;25.70;49.70;;;;;;5045693;28;20082;-65
2023/08/16 03:00:41;;;;;;;2.35;0.50;;;25.70;49.70;;;;;;5047877;28;20333;-67
2023/08/16 03:03:07;;;;;;;0.90;0.40;;;25.70;49.70;;;;;;5044994;28;20227;-66
2023/08/16 03:05:33;;;;;;;1.58;0.63;;;25.70;49.70;;;;;;5063678;28;20020;-66
2023/08/16 03:07:59;;;;;;;1.50;0.52;;;25.70;49.80;;;;;;5061658;28;20055;-67
2023/08/16 03:10:25;;;;;;;1.13;0.50;;;25.70;49.80;;;;;;5045964;28;20020;-65
2023/08/16 03:12:50;;;;;;;1.30;0.60;;;25.70;49.80;;;;;;5069852;28;21956;-66
2023/08/16 03:15:16;;;;;;;0.98;0.50;;;25.60;49.80;;;;;;5052058;28;20077;-66
2023/08/16 03:17:42;;;;;;;0.65;0.50;;;25.60;49.70;;;;;;5052017;28;20098;-65
2023/08/16 03:20:09;;;;;;;0.70;0.40;;;25.60;49.80;;;;;;5077015;28;20047;-66
2023/08/16 03:22:36;;;;;;;0.77;0.50;;;25.60;49.80;;;;;;5072563;28;20016;-67
2023/08/16 03:25:02;;;;;;;1.23;0.50;;;25.60;49.80;;;;;;5073630;28;20033;-66
2023/08/16 03:27:28;;;;;;;1.00;0.40;;;25.60;49.80;;;;;;5054766;28;20047;-67
2023/08/16 03:29:55;;;;;;;0.70;0.50;;;25.60;49.80;;;;;;5076133;28;20347;-68
2023/08/16 03:32:21;;;;;;;0.98;0.52;;;25.60;49.90;;;;;;5046803;28;20112;-66
2023/08/16 03:34:47;;;;;;;1.05;0.50;;;25.60;49.90;;;;;;5055652;28;20032;-66
2023/08/16 03:37:13;;;;;;;1.23;0.50;;;25.60;49.90;;;;;;5056253;28;20420;-65
2023/08/16 03:39:39;;;;;;;1.35;0.50;;;25.60;50.00;;;;;;5056957;28;20123;-66
2023/08/16 03:42:05;;;;;;;0.52;0.40;;;25.60;50.00;;;;;;5078770;28;20118;-66
2023/08/16 03:44:31;;;;;;;1.08;0.55;;;25.60;50.00;;;;;;5076748;28;20397;-67
2023/08/16 03:46:57;;;;;;;0.63;0.45;;;25.60;50.00;;;;;;5039669;28;20102;-66
2023/08/16 03:49:23;;;;;;;0.88;0.40;;;25.60;50.00;;;;;;5045158;28;20037;-67
2023/08/16 03:51:50;;;;;;;1.20;0.50;;;25.60;50.00;;;;;;5046648;28;20102;-66
2023/08/16 03:54:16;;;;;;;0.70;0.40;;;25.60;50.00;;;;;;5068075;28;20048;-67
2023/08/16 03:56:42;;;;;;;1.55;0.60;;;25.60;50.00;;;;;;5068964;28;20436;-66
2023/08/16 03:59:07;;;;;;;0.65;0.40;;;25.60;50.00;;;;;;5043318;28;20356;-66
2023/08/16 04:01:33;;;;;;;1.02;0.60;;;25.60;50.10;;;;;;5043462;28;20467;-66
2023/08/16 04:03:59;;;;;;;1.25;0.60;;;25.60;50.10;;;;;;5045725;28;20120;-66
2023/08/16 04:06:25;;;;;;;1.40;0.70;;;25.50;50.10;;;;;;5045094;28;20024;-66
2023/08/16 04:08:51;;;;;;;1.30;0.57;;;25.50;50.10;;;;;;5046161;28;20477;-67
2023/08/16 04:11:17;;;;;;;0.77;0.57;;;25.50;50.10;;;;;;5030301;28;20321;-65
2023/08/16 04:13:43;;;;;;;0.95;0.65;;;25.50;50.10;;;;;;5071789;28;20448;-66
2023/08/16 04:16:10;;;;;;;0.70;0.40;;;25.50;50.20;;;;;;5038462;28;20029;-68
2023/08/16 04:18:36;;;;;;;1.42;0.60;;;25.50;50.20;;;;;;5046879;28;20059;-65
2023/08/16 04:21:02;;;;;;;0.52;0.50;;;25.50;50.20;;;;;;5044504;28;20037;-66
2023/08/16 04:23:28;;;;;;;1.05;0.40;;;25.50;50.20;;;;;;5046967;28;20115;-65
2023/08/16 04:25:54;;;;;;;1.52;0.70;;;25.50;50.20;;;;;;5036627;28;20128;-66
2023/08/16 04:28:20;;;;;;;1.50;0.40;;;25.50;50.20;;;;;;5044779;28;20325;-65
2023/08/16 04:30:46;;;;;;;0.98;0.55;;;25.50;50.20;;;;;;5071316;28;20029;-67
2023/08/16 04:33:13;;;;;;;0.90;0.50;;;25.50;50.30;;;;;;5067146;28;20415;-67
2023/08/16 04:35:39;;;;;;;0.68;0.50;;;25.50;50.30;;;;;;5043469;28;20034;-66
2023/08/16 04:38:05;;;;;;;0.60;0.50;;;25.50;50.30;;;;;;5045769;28;20051;-66
2023/08/16 04:40:31;;;;;;;2.30;0.60;;;25.50;50.30;;;;;;5043564;28;20354;-67
2023/08/16 04:42:58;;;;;;;0.70;0.35;;;25.50;50.30;;;;;;5047743;28;20052;-67
2023/08/16 04:45:24;;;;;;;1.05;0.38;;;25.50;50.40;;;;;;5052524;28;20052;-67
2023/08/16 04:47:50;;;;;;;1.67;0.70;;;25.50;50.40;;;;;;5028800;28;20072;-67
2023/08/16 04:50:17;;;;;;;0.95;0.40;;;25.50;50.40;;;;;;5021229;28;20112;-67
2023/08/16 04:52:43;;;;;;;0.85;0.47;;;25.50;50.40;;;;;;5021769;28;20216;-67
2023/08/16 04:55:09;;;;;;;0.95;0.40;;;25.50;50.40;;;;;;5024064;28;20029;-67
2023/08/16 04:57:37;;;;;;;0.90;0.38;;;25.50;50.40;;;;;;5020464;28;20334;-68
2023/08/16 05:00:08;;;;;;;0.70;0.30;;;25.50;50.40;;;;;;5029170;28;20032;-67
2023/08/16 05:02:39;;;;;;;1.15;0.50;;;25.50;50.40;;;;;;5019824;28;20029;-67
2023/08/16 05:05:06;;;;;;;0.90;0.47;;;25.50;50.40;;;;;;5026179;28;20125;-66
2023/08/16 05:07:32;;;;;;;1.38;0.60;;;25.40;50.40;;;;;;5019910;28;20338;-66
2023/08/16 05:09:58;;;;;;;1.73;0.63;;;25.50;50.40;;;;;;5022940;28;20326;-67
2023/08/16 05:12:24;;;;;;;0.68;0.40;;;25.40;50.40;;;;;;5028697;28;20104;-68
2023/08/16 05:14:50;;;;;;;0.95;0.43;;;25.40;50.40;;;;;;5037281;28;20044;-68
2023/08/16 05:17:16;;;;;;;2.05;0.40;;;25.50;50.40;;;;;;5030247;28;20037;-65
2023/08/16 05:19:43;;;;;;;0.63;0.40;;;25.40;50.40;;;;;;5018212;28;20030;-68
2023/08/16 05:22:09;;;;;;;0.98;0.50;;;25.40;50.40;;;;;;5029720;28;20036;-65
2023/08/16 05:24:35;;;;;;;1.73;0.57;;;25.40;50.40;;;;;;5024362;28;20424;-67
2023/08/16 05:27:01;;;;;;;1.85;0.60;;;25.40;50.40;;;;;;5026420;28;20107;-67
2023/08/16 05:29:27;;;;;;;1.23;0.63;;;25.40;50.40;;;;;;5027920;28;20037;-66
2023/08/16 05:31:53;;;;;;;1.45;0.60;;;25.40;50.40;;;;;;5027354;28;20344;-66
2023/08/16 05:34:20;;;;;;;1.23;0.60;;;25.40;50.40;;;;;;5026324;28;20169;-68
2023/08/16 05:36:47;;;;;;;1.27;0.50;;;25.40;50.40;;;;;;5028822;28;20098;-67
2023/08/16 05:39:13;;;;;;;0.70;0.43;;;25.50;50.50;;;;;;5032435;28;20385;-65
2023/08/16 05:41:40;;;;;;;2.05;0.73;;;25.40;50.40;;;;;;5035063;28;20036;-67
2023/08/16 05:44:06;;;;;;;2.08;0.50;;;25.40;50.40;;;;;;5034278;28;20032;-66
2023/08/16 05:46:32;;;;;;;1.10;0.52;;;25.40;50.40;;;;;;5034128;28;20124;-67
2023/08/16 05:49:00;;;;;;;1.48;0.60;;;25.40;50.50;;;;;;5067846;28;20024;-67
2023/08/16 05:51:27;;;;;;;1.27;0.50;;;25.40;50.50;;;;;;5048724;28;20349;-67
2023/08/16 05:53:53;;;;;;;1.20;0.60;;;25.40;50.50;;;;;;5041116;28;20116;-68
2023/08/16 05:56:19;;;;;;;0.65;0.47;;;25.40;51.10;;;;;;5066104;28;20040;-67
2023/08/16 05:58:45;;;;;;;1.85;0.60;;;25.40;50.50;;;;;;5064572;28;20047;-68
2023/08/16 06:01:11;;;;;;;1.35;0.60;;;25.40;50.50;;;;;;5040899;28;20304;-66
2023/08/16 06:03:37;;;;;;;0.70;0.60;;;25.40;50.50;;;;;;5065899;28;20020;-68
2023/08/16 06:06:03;;;;;;;0.98;0.40;;;25.40;50.60;;;;;;5062907;28;20149;-66
2023/08/16 06:08:29;;;;;;;0.90;0.50;;;25.40;50.60;;;;;;5062067;28;20024;-67
2023/08/16 06:10:54;;;;;;;1.48;0.50;;;25.50;50.70;;;;;;5048408;28;20084;-67
2023/08/16 06:13:20;;;;;;;1.77;0.65;;;25.40;50.60;;;;;;5063269;28;20017;-67
2023/08/16 06:15:47;;;;;;;1.00;0.50;;;25.40;50.60;;;;;;5059158;28;20100;-67
2023/08/16 06:18:13;;;;;;;1.67;0.50;;;25.50;50.70;;;;;;5065003;28;20100;-66
2023/08/16 06:20:39;;;;;;;0.40;0.30;;;25.40;50.70;;;;;;5066283;28;20096;-68
2023/08/16 06:23:05;;;;;;;1.13;0.55;;;25.50;50.80;;;;;;5051075;28;20103;-69
2023/08/16 06:25:31;;;;;;;0.82;0.50;;;25.40;50.80;;;;;;5065686;28;20020;-66
2023/08/16 06:27:58;;;;;;;2.05;0.70;;;25.40;50.80;;;;;;5046274;28;20021;-68
2023/08/16 06:30:24;;;;;;;1.30;0.55;;;25.40;50.90;;;;;;5067391;28;20409;-67
2023/08/16 06:32:50;;;;;;;1.08;0.60;;;25.50;51.00;;;;;;5061516;28;20038;-67
2023/08/16 06:35:16;;;;;;;1.13;0.50;;;25.50;51.00;;;;;;5039762;28;20320;-67
2023/08/16 06:37:46;;;;;;;1.15;0.50;;;25.50;51.00;;;;;;5061260;28;20106;-68
2023/08/16 06:40:12;;;;;;;1.42;0.45;;;25.50;51.10;;;;;;5063032;28;20127;-65
2023/08/16 06:42:41;;;;;;;1.13;0.52;;;25.50;51.10;;;;;;5070110;28;20029;-67
2023/08/16 06:45:09;;;;;;;0.70;0.57;;;25.50;51.10;;;;;;5066973;28;20477;-67
2023/08/16 06:47:35;;;;;;;1.05;0.50;;;25.50;51.20;;;;;;5065908;28;20056;-71
2023/08/16 06:50:01;;;;;;;0.68;0.45;;;25.50;51.20;;;;;;5039788;28;20021;-65
2023/08/16 06:52:27;;;;;;;0.90;0.52;;;25.50;51.30;;;;;;5070759;28;20399;-68
2023/08/16 06:54:53;;;;;;;1.08;0.50;;;25.50;51.40;;;;;;5071606;28;20419;-67
2023/08/16 06:57:19;;;;;;;1.25;0.40;;;25.50;51.40;;;;;;5066064;28;20044;-67
2023/08/16 06:59:45;;;;;;;1.35;0.57;;;25.50;51.40;;;;;;5009848;28;20192;-66
2023/08/16 07:02:11;;;;;;;0.88;0.50;;;25.50;51.40;;;;;;4998830;28;20153;-67
2023/08/16 07:04:40;;;;;;;1.10;0.57;;;25.60;51.50;;;;;;5001843;28;20311;-66
2023/08/16 07:07:06;;;;;;;1.13;0.50;;;25.50;51.40;;;;;;5006214;28;20137;-66
2023/08/16 07:09:32;;;;;;;1.00;0.60;;;25.50;51.40;;;;;;5000206;28;20131;-67
2023/08/16 07:11:58;;;;;;;0.77;0.35;;;25.60;51.40;;;;;;4982395;28;20129;-66
2023/08/16 07:14:24;;;;;;;1.85;0.60;;;25.50;51.30;;;;;;5009574;28;20049;-67
2023/08/16 07:16:51;;;;;;;1.20;0.57;;;25.60;51.40;;;;;;5015139;28;20033;-67
2023/08/16 07:19:17;;;;;;;0.70;0.40;;;25.60;51.30;;;;;;4996401;28;20433;-68
2023/08/16 07:21:43;;;;;;;1.20;0.52;;;25.60;51.30;;;;;;5000932;28;20084;-68
2023/08/16 07:24:09;;;;;;;1.83;0.50;;;25.60;51.30;;;;;;5015697;28;20479;-68
2023/08/16 07:26:37;;;;;;;0.85;0.60;;;25.60;51.20;;;;;;5012552;28;20034;-66
2023/08/16 07:29:03;;;;;;;1.58;0.70;;;25.60;51.20;;;;;;5015517;28;20041;-70
2023/08/16 07:31:28;;;;;;;0.95;0.40;;;25.60;51.20;;;;;;5040697;28;20032;-68
2023/08/16 07:33:54;;;;;;;1.23;0.50;;;25.60;51.10;;;;;;5068547;28;20324;-68
2023/08/16 07:36:20;;;;;;;0.50;0.35;;;25.60;51.10;;;;;;5057354;28;20442;-67
2023/08/16 07:38:47;;;;;;;1.60;0.60;;;25.60;51.00;;;;;;5062368;28;20371;-68
2023/08/16 07:41:13;;;;;;;1.17;0.47;;;25.60;51.00;;;;;;5063913;28;20400;-66
2023/08/16 07:43:40;;;;;;;0.95;0.57;;;25.60;50.90;;;;;;5043233;28;20047;-68
2023/08/16 07:46:06;;;;;;;0.60;0.40;;;25.70;51.00;;;;;;5061281;28;20044;-68
2023/08/16 07:48:32;;;;;;;1.70;0.60;;;25.60;50.90;;;;;;5063667;28;20166;-68
2023/08/16 07:50:58;;;;;;;1.05;0.60;;;25.60;50.90;;;;;;5064021;28;20179;-70
2023/08/16 07:53:24;;;;;;;1.55;0.40;;;25.70;50.90;;;;;;5054677;28;20027;-68
2023/08/16 07:55:50;;;;;;;0.70;0.40;;;25.80;50.80;;;;;;5080688;28;20103;-69
2023/08/16 07:58:16;;;;;;;1.67;0.40;;;25.80;50.60;;;;;;5082604;28;20093;-69
2023/08/16 08:00:42;;;;;;;1.15;0.50;;;25.90;50.50;;;;;;5081849;28;20040;-69
2023/08/16 08:03:11;;;;;;;0.50;0.40;;;26.00;50.40;;;;;;5079706;28;20032;-69
2023/08/16 08:05:38;;;;;;;1.17;0.47;;;26.10;50.20;;;;;;5080473;28;20078;-69
2023/08/16 08:08:06;;;;;;;1.27;0.45;;;26.20;50.10;;;;;;5071530;28;20039;-67
2023/08/16 08:10:32;;;;;;;0.68;0.30;;;26.20;49.90;;;;;;5079222;28;20144;-67
2023/08/16 08:12:58;;;;;;;0.75;0.40;;;26.30;49.80;;;;;;5085385;28;20035;-68
2023/08/16 08:15:25;;;;;;;1.27;0.68;;;26.40;49.60;;;;;;5066256;28;20098;-68
2023/08/16 08:17:51;;;;;;;1.42;0.50;;;26.50;49.40;;;;;;5073115;28;20036;-67
2023/08/16 08:20:17;;;;;;;1.73;0.52;;;26.50;49.40;;;;;;5067480;28;20043;-68
2023/08/16 08:22:42;;;;;;;1.15;0.57;;;26.60;49.30;;;;;;5085570;28;20383;-69
2023/08/16 08:25:09;;;;;;;1.95;0.47;;;26.60;49.10;;;;;;5088582;28;20034;-69
2023/08/16 08:27:35;;;;;;;1.38;0.40;;;26.70;49.00;;;;;;5060187;28;20032;-67
2023/08/16 08:30:02;;;;;;;0.80;0.45;;;26.70;48.90;;;;;;5071172;28;20085;-67
2023/08/16 08:32:28;;;;;;;0.60;0.40;;;26.80;48.80;;;;;;5064470;28;20203;-69
2023/08/16 08:34:54;;;;;;;1.10;0.60;;;26.80;48.70;;;;;;5087666;28;20156;-67
2023/08/16 08:37:23;;;;;;;0.85;0.50;;;26.90;48.70;;;;;;5068223;28;20108;-67
2023/08/16 08:39:49;;;;;;;1.08;0.35;;;26.90;48.50;;;;;;5085326;28;20110;-68
2023/08/16 08:42:16;;;;;;;0.63;0.40;;;26.90;49.00;;;;;;5081904;28;20024;-68
2023/08/16 08:44:43;;;;;;;0.95;0.30;;;26.90;48.40;;;;;;5085125;28;20107;-68
2023/08/16 08:47:10;;;;;;;0.50;0.30;;;27.00;48.30;;;;;;5083351;28;20105;-69
2023/08/16 08:49:37;;;;;;;1.33;0.60;;;27.00;48.30;;;;;;5086985;28;20024;-68
2023/08/16 08:52:04;;;;;;;0.88;0.40;;;27.00;48.20;;;;;;5065983;28;20036;-69
2023/08/16 08:54:31;;;;;;;0.40;0.30;;;27.10;48.20;;;;;;5068970;28;20020;-68
2023/08/16 08:56:59;;;;;;;1.45;0.47;;;27.10;48.20;;;;;;5086492;28;20048;-67
2023/08/16 08:59:28;;;;;;;0.95;0.40;;;27.10;48.20;;;;;;5082362;28;20052;-68
2023/08/16 09:01:54;;;;;;;2.17;0.65;;;27.20;48.20;;;;;;5051931;28;20320;-67
2023/08/16 09:04:21;;;;;;;1.35;0.50;;;27.20;48.20;;;;;;5088811;28;20102;-68
2023/08/16 09:06:48;;;;;;;1.85;0.73;;;27.20;48.20;;;;;;5074234;28;20021;-69
2023/08/16 09:09:14;;;;;;;1.10;0.70;;;27.20;48.10;;;;;;5076344;28;20130;-67
2023/08/16 09:11:42;;;;;;;0.68;0.40;;;27.20;48.00;;;;;;5086870;28;20506;-68
2023/08/16 09:14:08;;;;;;;1.65;0.90;;;27.20;48.00;;;;;;5047163;28;20047;-68
2023/08/16 09:16:34;;;;;;;1.40;0.60;;;27.30;48.00;;;;;;5055452;28;20028;-68
2023/08/16 09:19:00;;;;;;;1.30;0.57;;;27.30;47.90;;;;;;5070655;28;20363;-67
2023/08/16 09:21:28;;;;;;;1.67;0.50;;;27.30;47.90;;;;;;5071317;28;20020;-67
2023/08/16 09:23:58;;;;;;;1.23;0.60;;;27.30;47.90;;;;;;5071136;28;20020;-69
2023/08/16 09:26:27;;;;;;;1.48;0.60;;;27.30;47.80;;;;;;5073342;28;20107;-68
2023/08/16 09:28:58;;;;;;;1.90;0.60;;;27.40;47.90;;;;;;5079150;28;20043;-69
2023/08/16 09:31:30;;;;;;;1.60;0.90;;;27.40;47.80;;;;;;5074470;28;20028;-69
2023/08/16 09:34:01;;;;;;;1.83;0.60;;;27.40;47.70;;;;;;5055111;28;20050;-70
2023/08/16 09:36:30;;;;;;;1.02;0.40;;;27.50;47.70;;;;;;5085570;28;20063;-67
2023/08/16 09:39:04;;;;;;;0.80;0.52;;;27.50;47.70;;;;;;5083615;28;20048;-67
2023/08/16 09:41:31;;;;;;;2.15;0.60;;;27.50;47.60;;;;;;5058897;28;20036;-67
2023/08/16 09:44:08;;;;;;;1.60;0.50;;;27.50;47.50;;;;;;5082606;28;20342;-67
2023/08/16 09:46:41;;;;;;;0.98;0.60;;;27.60;47.50;;;;;;5061894;28;20114;-69
2023/08/16 09:49:10;;;;;;;1.00;0.55;;;27.60;47.50;;;;;;5069058;28;20035;-67
2023/08/16 09:51:38;;;;;;;1.17;0.45;;;27.60;47.30;;;;;;5064843;28;20035;-69
2023/08/16 09:54:14;;;;;;;1.35;0.80;;;27.60;47.20;;;;;;5068468;28;20366;-69
2023/08/16 09:56:43;;;;;;;0.73;0.43;;;27.60;47.10;;;;;;5066148;28;20067;-68
2023/08/16 09:59:11;;;;;;;1.58;0.50;;;27.70;47.10;;;;;;5056321;28;20048;-67
2023/08/16 10:01:38;;;;;;;0.98;0.43;;;27.60;47.00;;;;;;5058962;28;20067;-68
2023/08/16 10:04:05;;;;;;;0.80;0.45;;;27.70;46.90;;;;;;5087766;28;20047;-67
2023/08/16 10:06:32;;;;;;;0.50;0.47;;;27.70;46.70;;;;;;5068440;28;20055;-67
2023/08/16 10:09:02;;;;;;;1.02;0.45;;;27.70;46.70;;;;;;5047721;28;20444;-67
2023/08/16 10:11:28;;;;;;;0.85;0.45;;;27.70;46.70;;;;;;5017469;28;20036;-65
2023/08/16 10:13:55;;;;;;;0.82;0.40;;;27.70;46.70;;;;;;5050373;28;20032;-66
2023/08/16 10:16:25;;;;;;;0.95;0.50;;;27.80;46.80;;;;;;5031754;28;20171;-68
2023/08/16 10:18:53;;;;;;;1.17;0.57;;;27.80;46.70;;;;;;5049223;28;20106;-68
2023/08/16 10:21:21;;;;;;;1.30;0.60;;;27.80;46.60;;;;;;5058665;28;20459;-65
2023/08/16 10:23:48;;;;;;;0.90;0.45;;;27.80;46.50;;;;;;5062871;28;20040;-63
2023/08/16 10:26:17;;;;;;;1.50;0.60;;;27.90;46.50;;;;;;5056130;28;20048;-69
2023/08/16 10:28:50;;;;;;;1.35;0.50;;;27.90;46.40;;;;;;5032305;28;20071;-67
2023/08/16 10:31:25;;;;;;;1.30;0.47;;;27.90;46.40;;;;;;5058099;28;20548;-70
2023/08/16 10:33:54;;;;;;;0.60;0.52;;;27.90;46.40;;;;;;5069996;28;20106;-70
2023/08/16 10:36:22;;;;;;;1.20;0.57;;;27.90;46.40;;;;;;5053339;28;20154;-67
2023/08/16 10:38:54;;;;;;;1.95;0.50;;;27.90;46.40;;;;;;5061520;28;20419;-68
2023/08/16 10:41:24;;;;;;;0.82;0.40;;;27.90;46.30;;;;;;5052477;28;20045;-67
2023/08/16 10:43:54;;;;;;;1.05;0.52;;;27.90;46.30;;;;;;5050913;28;20024;-68
2023/08/16 10:46:30;;;;;;;0.60;0.40;;;28.00;46.30;;;;;;5061903;28;20332;-67
2023/08/16 10:48:58;;;;;;;0.82;0.40;;;27.90;46.20;;;;;;5088232;28;20100;-68
2023/08/16 10:51:25;;;;;;;0.90;0.40;;;28.00;46.30;;;;;;5089788;28;20023;-67
2023/08/16 10:53:54;;;;;;;0.50;0.40;;;28.00;46.20;;;;;;5052318;28;20033;-68
2023/08/16 10:56:20;;;;;;;0.68;0.50;;;28.00;46.20;;;;;;5034193;28;20409;-68
2023/08/16 10:58:51;;;;;;;0.98;0.50;;;28.00;46.10;;;;;;5067292;28;20492;-68
2023/08/16 11:01:17;;;;;;;0.70;0.40;;;28.00;46.10;;;;;;5051958;28;20033;-67
2023/08/16 11:03:43;;;;;;;0.98;0.50;;;28.00;46.10;;;;;;5087530;28;20443;-69
2023/08/16 11:06:14;;;;;;;0.93;0.40;;;28.00;46.00;;;;;;5085074;28;20045;-68
2023/08/16 11:08:42;;;;;;;1.00;0.47;;;28.00;46.00;;;;;;5065505;28;20024;-69
2023/08/16 11:11:08;;;;;;;0.95;0.40;;;28.00;45.90;;;;;;5089459;28;20100;-68
2023/08/16 11:13:34;;;;;;;0.88;0.50;;;28.00;45.90;;;;;;5090048;28;20028;-68
2023/08/16 11:16:00;;;;;;;0.75;0.40;;;28.00;45.90;;;;;;5082692;28;20039;-68
2023/08/16 11:18:31;;;;;;;0.47;0.30;;;28.00;45.80;;;;;;5086945;28;20032;-68
2023/08/16 11:21:00;;;;;;;0.60;0.35;;;28.00;45.70;;;;;;5091898;28;20097;-67
2023/08/16 11:23:31;;;;;;;1.35;0.68;;;28.00;45.70;;;;;;5092141;28;20059;-68
2023/08/16 11:26:01;;;;;;;0.57;0.43;;;28.00;45.60;;;;;;5092103;28;20047;-67
2023/08/16 11:28:32;;;;;;;1.10;0.50;;;28.10;45.60;;;;;;5091843;28;20040;-68
2023/08/16 11:31:02;;;;;;;0.77;0.40;;;28.00;45.60;;;;;;5089294;28;20031;-68
2023/08/16 11:33:36;;;;;;;1.17;0.40;;;28.00;45.50;;;;;;5089708;28;20112;-66
2023/08/16 11:36:04;;;;;;;0.30;0.22;;;28.00;45.50;;;;;;5091959;28;20082;-69
2023/08/16 11:38:31;;;;;;;1.33;0.50;;;28.00;45.50;;;;;;5092106;28;20493;-68
2023/08/16 11:40:57;;;;;;;0.93;0.50;;;28.00;45.40;;;;;;5077622;28;20308;-68
2023/08/16 11:43:34;;;;;;;0.50;0.40;;;28.10;45.40;;;;;;5096106;28;20071;-67
2023/08/16 11:46:02;;;;;;;0.70;0.57;;;28.10;45.30;;;;;;5096040;28;20441;-67
2023/08/16 11:48:29;;;;;;;0.85;0.40;;;28.00;45.20;;;;;;5094585;28;20127;-68
2023/08/16 11:50:56;;;;;;;1.30;0.55;;;28.10;45.30;;;;;;5077641;28;20410;-68
2023/08/16 11:53:31;;;;;;;0.63;0.50;;;28.00;45.20;;;;;;5096073;28;20088;-68
2023/08/16 11:56:12;;;;;;;0.90;0.50;;;28.00;45.10;;;;;;5093433;28;20114;-69
2023/08/16 11:58:46;;;;;;;0.60;0.40;;;28.00;45.10;;;;;;5073605;28;20040;-68
2023/08/16 12:01:14;;;;;;;0.85;0.50;;;28.10;45.10;;;;;;5066323;28;20036;-69
2023/08/16 12:03:44;;;;;;;0.88;0.50;;;28.10;45.30;;;;;;5026287;28;20025;-67
2023/08/16 12:06:12;;;;;;;0.60;0.50;;;28.10;45.40;;;;;;5075469;28;20036;-69
2023/08/16 12:08:54;;;;;;;1.00;0.45;;;28.10;45.60;;;;;;5076493;28;20047;-68
2023/08/16 12:11:40;;;;;;;0.82;0.40;;;28.10;45.70;;;;;;5074430;28;20380;-68
2023/08/16 12:14:06;;;;;;;0.77;0.47;;;28.20;45.80;;;;;;5067463;28;20344;-68
2023/08/16 12:16:32;;;;;;;0.75;0.40;;;28.20;45.90;;;;;;5046441;28;20051;-67
2023/08/16 12:18:58;;;;;;;0.88;0.47;;;28.20;45.90;;;;;;5070652;28;20393;-68
2023/08/16 12:21:25;;;;;;;1.67;0.40;;;28.20;45.90;;;;;;5062609;28;20181;-68
2023/08/16 12:23:51;;;;;;;0.98;0.52;;;28.30;46.00;;;;;;5067899;28;20042;-67
2023/08/16 12:26:17;;;;;;;1.42;0.50;;;28.30;46.00;;;;;;5067785;28;20048;-67
2023/08/16 12:28:43;;;;;;;0.75;0.60;;;28.30;45.90;;;;;;5067992;28;20343;-68
2023/08/16 12:31:10;;;;;;;0.70;0.47;;;28.30;45.90;;;;;;5078920;28;20036;-70
2023/08/16 12:33:36;;;;;;;1.08;0.50;;;28.30;45.80;;;;;;5082923;28;20031;-67
2023/08/16 12:36:03;;;;;;;0.57;0.50;;;28.30;45.70;;;;;;5055080;28;20036;-67
2023/08/16 12:38:29;;;;;;;1.30;0.57;;;28.30;45.60;;;;;;5040682;28;20048;-68
2023/08/16 12:40:55;;;;;;;0.93;0.40;;;28.30;45.60;;;;;;5068781;28;20028;-68
2023/08/16 12:43:21;;;;;;;1.10;0.40;;;28.40;45.60;;;;;;5066926;28;20377;-66
2023/08/16 12:45:46;;;;;;;0.77;0.52;;;28.40;45.50;;;;;;5066473;28;21593;-68
2023/08/16 12:48:14;;;;;;;1.10;0.47;;;28.40;45.40;;;;;;5062837;28;20049;-66